WARNING - Change wsUserSettings.php: $SITE["topfolder"] from : public_html./ to: ./
Welkom op onze website - Nieuw is onze nieuwe fijnstofmeter


Webcam zuid Meer informatie Webcam zuid


Webcam noord Meer informatie Webcam noord


Onweer radar Meer informatie blitzortung!


Regen radar Meer informatie rain snow radar


Bezoek onze andere website:

Template documentation
and downloads

Onze andere website


U vindt ons ook hier:

Het Weer Aktueel

UK Metoffice

European Weather Network

WeatherCloud

Weather Underground

Austria Weather Network

AWEKAS

Citizen Weather Observer Program (CWOP)

HAMweather, WeatherForYou, PWS Weather

Wetterpage 24

Roosendaal op internet

VWKWEB

RadioZuidWestFM



Het weer levert geen direct gevaar op.    Er zijn geen waarschuwingen afgegeven.

Aardbevingen in de afgelopen 7 dagen

Aardbevingen in de laatste 7 dagen met een kracht van 2.0 of groter op 15000 km
Laatste wijziging = 01-12-2020 12:56

Epicenter in de buurt van Magnitude Afstand tot epicenter Lokale tijd Link
11 km NNO van Ocotillo Wells, CA 2.4 0089538953 km 160682227101-12-2020 11:31 kaart
1 km NNW of Maria Antonia, Puerto Rico 2.4 0071677167 km 160682047701-12-2020 11:01 kaart
13 km SE of La Romana, Dominican Republic 3.8 0072777277 km 160682006101-12-2020 10:54 kaart
9 km E of Pāhala, Hawaii 2.1 01190611906 km 160681979701-12-2020 10:49 kaart
11 km NNO van Ocotillo Wells, CA 2.0 0089538953 km 160681978201-12-2020 10:49 kaart
6 km SE of La Parguera, Puerto Rico 2.2 0071787178 km 160681845201-12-2020 10:27 kaart
7 km SSE of Maria Antonia, Puerto Rico 2.2 0071707170 km 160681767801-12-2020 10:14 kaart
4 km E of Pāhala, Hawaii 2.2 01190811908 km 160681730601-12-2020 10:08 kaart
70 km S of Kaktovik, Alaska 3.4 0063106310 km 160681597301-12-2020 09:46 kaart
46 km S of Cantwell, Alaska 2.1 0070677067 km 160681384701-12-2020 09:10 kaart
150 km N of Cruz Bay, U.S. Virgin Islands 3.9 0068716871 km 160681306701-12-2020 08:57 kaart
Mona Passage 3.4 0070827082 km 160681027501-12-2020 08:11 kaart
4 km ZW van Moss Landing, CA 2.4 0088938893 km 160680855901-12-2020 07:42 kaart
2 km E of Magas Arriba, Puerto Rico 2.1 0071547154 km 160680372701-12-2020 06:22 kaart
137 km SSE of McCarthy, Alaska 2.0 0072087208 km 160680352301-12-2020 06:18 kaart
106 km NNE of Calama, Chile 4.2 01076410764 km 160680334101-12-2020 06:15 kaart
4 km SW of Tallaboa, Puerto Rico 2.5 0071597159 km 160680184701-12-2020 05:50 kaart
12 km N of Pāhala, Hawaii 2.4 01189811898 km 160680079401-12-2020 05:33 kaart
6 km SE of Oso, Washington 2.3 0078067806 km 160680058101-12-2020 05:29 kaart
15 km Z van Arvin, CA 2.6 0089158915 km 160679958501-12-2020 05:13 kaart
24 km SE of Susitna North, Alaska 2.0 0071817181 km 160679858301-12-2020 04:56 kaart
10 km ZW van Niland, CA 2.3 0089328932 km 160679798601-12-2020 04:46 kaart
29 km ZO van Bodie, CA 2.2 0086308630 km 160679728901-12-2020 04:34 kaart
9 km W of Murindó, Colombia 4.2 0088048804 km 160679643501-12-2020 04:20 kaart
51 km SSW of Skwentna, Alaska 2.3 0072627262 km 160679637201-12-2020 04:19 kaart
29 km ZO van Bodie, CA 3.1 0086308630 km 160679611201-12-2020 04:15 kaart
5 km ENE of Pāhala, Hawaii 2.1 01190711907 km 160679604901-12-2020 04:14 kaart
8 km NW van Lake Pillsbury, CA 2.1 0086888688 km 160679563601-12-2020 04:07 kaart
36 km NW of Stanley, Idaho 2.6 0078727872 km 160679143201-12-2020 02:57 kaart
5 km WNW van The Geysers, CA 2.0 0087438743 km 160679017201-12-2020 02:36 kaart
3 km SW of Tallaboa, Puerto Rico 2.1 0071577157 km 160678877101-12-2020 02:12 kaart
14 km ZZW van Searles Valley, CA 3.1 0087948794 km 160678768901-12-2020 01:54 kaart
5 km SSW of Guánica, Puerto Rico 2.1 0071757175 km 160678608001-12-2020 01:28 kaart
2 km SE of La Parguera, Puerto Rico 2.3 0071797179 km 160678488101-12-2020 01:08 kaart
16 km W van Ukiah, CA 3.3 0087338733 km 160678478001-12-2020 01:06 kaart
15 km NO van Little Lake, CA 2.5 0087758775 km 160678441301-12-2020 01:00 kaart
68 km ENE of Chase, Alaska 2.1 0070937093 km 160678271201-12-2020 00:31 kaart
84 km W of San Antonio de los Cobres, Argentina 4.3 01091710917 km 160678215901-12-2020 00:22 kaart
Rat Islands, Aleutian Islands, Alaska 3.6 0085538553 km 160678136101-12-2020 00:09 kaart
8 km SSE of Guánica, Puerto Rico 2.5 0071747174 km 160677955230-11-2020 23:39 kaart
7 km SW of Guánica, Puerto Rico 2.7 0071787178 km 160677889430-11-2020 23:28 kaart
6 km W van Cobb, CA 2.1 0087398739 km 160677885530-11-2020 23:27 kaart
4 km E of La Parguera, Puerto Rico 2.7 0071767176 km 160677858130-11-2020 23:23 kaart
4 km NE of Medford, Oklahoma 2.0 0076297629 km 160677792630-11-2020 23:12 kaart
11 km ZZW van Searles Valley, CA 2.3 0087918791 km 160677748130-11-2020 23:04 kaart
12 km Z van Tres Pinos, CA 2.2 0088798879 km 160677743530-11-2020 23:03 kaart
Chile-Argentina border region 6.3 01092410924 km 160677689930-11-2020 22:54 kaart
88 km SSE of Sovetskaya Gavan’, Russia 6.4 0081698169 km 160677687430-11-2020 22:54 kaart
10 km SSE of Fern Forest, Hawaii 2.1 01188011880 km 160677660730-11-2020 22:50 kaart
9 km NNW of Stanley, Idaho 2.4 0078797879 km 160677480530-11-2020 22:20 kaart
3 km S of Pāhala, Hawaii 2.4 01191311913 km 160677376130-11-2020 22:02 kaart
173 km S of Attu Station, Alaska 4.6 0085348534 km 160677215030-11-2020 21:35 kaart
5 km E of Pāhala, Hawaii 2.1 01190711907 km 160677201830-11-2020 21:33 kaart
1 km ENE of Big Lake, Alaska 2.7 0072397239 km 160677099030-11-2020 21:16 kaart
6 km WSW of Guánica, Puerto Rico 2.0 0071757175 km 160677031830-11-2020 21:05 kaart
33 km SE of Mina, Nevada 2.6 0085818581 km 160676453630-11-2020 19:28 kaart
113 km SSE of Lorengau, Papua New Guinea 4.8 01362713627 km 160676365530-11-2020 19:14 kaart
33 km NNE of Benton, California 2.9 0086068606 km 160676308830-11-2020 19:04 kaart
41 km WSW of Nanwalek, Alaska 2.4 0075337533 km 160676212030-11-2020 18:48 kaart
2 km ESE of Pāhala, Hawaii 2.0 01191011910 km 160675895330-11-2020 17:55 kaart
67 km NNW of Sinabang, Indonesia 5.0 0098609860 km 160675645230-11-2020 17:14 kaart
12 km S of Guánica, Puerto Rico 2.4 0071807180 km 160675600930-11-2020 17:06 kaart
44 km ESE of Nikolski, Alaska 4.8 0083888388 km 160675560730-11-2020 17:00 kaart
18 km N of Indian Springs, Nevada 2.3 0086058605 km 160675438330-11-2020 16:39 kaart
12 km S of Guánica, Puerto Rico 2.7 0071797179 km 160675435430-11-2020 16:39 kaart
94 km SSE of Punta de Burica, Panama 4.6 0091539153 km 160675417830-11-2020 16:36 kaart
4 km SE of La Parguera, Puerto Rico 2.4 0071797179 km 160675411130-11-2020 16:35 kaart
Nevada 2.3 0085828582 km 160675361230-11-2020 16:26 kaart
4 km NE of Eastborough, Kansas 2.3 0075287528 km 160674908630-11-2020 15:11 kaart
4 km ZW van Mexicali, B.C., MX 2.1 0089798979 km 160674864830-11-2020 15:04 kaart
71 km S of Kaktovik, Alaska 2.2 0063106310 km 160674836030-11-2020 14:59 kaart
77 km S of Mil’kovo, Russia 4.5 0080338033 km 160674758430-11-2020 14:46 kaart
8 km SSE of Maria Antonia, Puerto Rico 3.0 0071737173 km 160674616330-11-2020 14:22 kaart
10 km NNE of Quinlan, Oklahoma 2.0 0077297729 km 160674476230-11-2020 13:59 kaart
50 km N of Gazli, Uzbekistan 4.7 0045774577 km 160674470630-11-2020 13:58 kaart
16 km ENE of Ḩamāh, Syria 4.4 0031523152 km 160674402430-11-2020 13:47 kaart
6 km WSW of Guánica, Puerto Rico 2.9 0071767176 km 160674338430-11-2020 13:36 kaart
22 km WNW of Stanley, Idaho 2.2 0078837883 km 160674179230-11-2020 13:09 kaart
62 km SSW of Jurm, Afghanistan 4.1 0053575357 km 160673955730-11-2020 12:32 kaart
5 km SW of Volcano, Hawaii 3.2 01188211882 km 160673796730-11-2020 12:06 kaart
5 km SW of Volcano, Hawaii 2.1 01188211882 km 160673759930-11-2020 11:59 kaart
4 km SW of Guánica, Puerto Rico 2.3 0071747174 km 160673758230-11-2020 11:59 kaart
28 km SSE of Mina, Nevada 3.0 0085858585 km 160673708330-11-2020 11:51 kaart
29 km SSE of Denali National Park, Alaska 2.3 0070737073 km 160673699730-11-2020 11:49 kaart
16 km WSW of Las Salinas, Dominican Republic 4.6 0074657465 km 160673476130-11-2020 11:12 kaart
70 km SW of Kaktovik, Alaska 3.1 0063116311 km 160673474030-11-2020 11:12 kaart
33 km NE of Benton, California 2.6 0086058605 km 160673421230-11-2020 11:03 kaart
19 km S of Pa‘auilo, Hawaii 2.8 01183511835 km 160673411530-11-2020 11:01 kaart
42 km SSE of Circle, Alaska 2.6 0067276727 km 160673392630-11-2020 10:58 kaart
109 km E of Circle, Alaska 2.3 0066356635 km 160673323630-11-2020 10:47 kaart
33 km NE of Benton, California 3.0 0086058605 km 160673192630-11-2020 10:25 kaart
64 km NNE of Karluk, Alaska 2.4 0076677667 km 160673002330-11-2020 09:53 kaart
14 km SW of Healy, Alaska 2.0 0069906990 km 160672968230-11-2020 09:48 kaart
Puerto Rico region 2.6 0071777177 km 160672854730-11-2020 09:29 kaart
3 km S of Pāhala, Hawaii 2.1 01191211912 km 160672622430-11-2020 08:50 kaart
6 km S of Maria Antonia, Puerto Rico 2.3 0071727172 km 160672620530-11-2020 08:50 kaart
0 km NW of Guayanilla, Puerto Rico 2.1 0071587158 km 160672549630-11-2020 08:38 kaart
15 km NNW of Stanley, Idaho 2.7 0078747874 km 160672189430-11-2020 07:38 kaart
6 km WSW of Guánica, Puerto Rico 2.1 0071757175 km 160672055630-11-2020 07:15 kaart
3 km SW of Indios, Puerto Rico 3.0 0071657165 km 160671784930-11-2020 06:30 kaart
35 km SE of Seldovia, Alaska 2.1 0075037503 km 160671693830-11-2020 06:15 kaart
105 km NNE of Calama, Chile 4.4 01076610766 km 160671632830-11-2020 06:05 kaart
1 km ENE of Indios, Puerto Rico 2.3 0071607160 km 160671608130-11-2020 06:01 kaart
southern Idaho 2.8 0078737873 km 160671513130-11-2020 05:45 kaart
1 km SE of Guánica, Puerto Rico 2.2 0071707170 km 160671285030-11-2020 05:07 kaart
Fox Islands, Aleutian Islands, Alaska 5.5 0084028402 km 160671234930-11-2020 04:59 kaart
12 km ZW van Toms Place, CA 2.7 0086848684 km 160671204630-11-2020 04:54 kaart
5 km SW of Volcano, Hawaii 2.1 01188211882 km 160671099330-11-2020 04:36 kaart
59 km NNE of Karluk, Alaska 2.8 0076727672 km 160671014830-11-2020 04:22 kaart
21 km SSE of Guánica, Puerto Rico 2.2 0071807180 km 160671014430-11-2020 04:22 kaart
21 km NW of Stanley, Idaho 2.8 0078817881 km 160670705930-11-2020 03:30 kaart
8 km SW of Volcano, Hawaii 2.0 01188411884 km 160670517430-11-2020 02:59 kaart
76 km W of Skwentna, Alaska 2.1 0072207220 km 160670426330-11-2020 02:44 kaart
6 km SSE of Indios, Puerto Rico 2.1 0071657165 km 160670405330-11-2020 02:40 kaart
6 km WSW of Guánica, Puerto Rico 2.5 0071757175 km 160670245830-11-2020 02:14 kaart
7 km SW of Volcano, Hawaii 2.1 01188411884 km 160670162930-11-2020 02:00 kaart
7 km SSE of Fern Forest, Hawaii 2.3 01188011880 km 160670137930-11-2020 01:56 kaart
18 km E of Honaunau-Napoopoo, Hawaii 2.9 01188811888 km 160669987330-11-2020 01:31 kaart
1 km NNW of Guayanilla, Puerto Rico 2.1 0071577157 km 160669881730-11-2020 01:13 kaart
88 km SSE of Ugashik, Alaska 2.8 0078567856 km 160669799230-11-2020 00:59 kaart
42 km ESE of Nelson Lagoon, Alaska 3.6 0079927992 km 160669785430-11-2020 00:57 kaart
1 km SSE of Guánica, Puerto Rico 2.3 0071717171 km 160669653630-11-2020 00:35 kaart
34 km NW of Stanley, Idaho 2.3 0078727872 km 160669596630-11-2020 00:26 kaart
15 km NNW of Stanley, Idaho 2.7 0078767876 km 160669400629-11-2020 23:53 kaart
27 km NW of Stanley, Idaho 2.4 0078787878 km 160669171429-11-2020 23:15 kaart
86 km NE of Punta Cana, Dominican Republic 3.1 0071367136 km 160669161329-11-2020 23:13 kaart
15 km WZW van Searles Valley, CA 3.1 0087938793 km 160668898829-11-2020 22:29 kaart
25 km NW of Stanley, Idaho 2.7 0078807880 km 160668750729-11-2020 22:05 kaart
3 km SW of Guánica, Puerto Rico 2.2 0071737173 km 160668708029-11-2020 21:58 kaart
16 km NNW of Stanley, Idaho 2.6 0078767876 km 160668681229-11-2020 21:53 kaart
85 km W of Salamatof, Alaska 3.1 0073837383 km 160668644429-11-2020 21:47 kaart
26 km E of Pedro Bay, Alaska 2.0 0074787478 km 160668317429-11-2020 20:52 kaart
62 km NW of Rachel, Nevada 2.0 0085168516 km 160668272229-11-2020 20:45 kaart
13 km W van Ludlow, CA 2.0 0088248824 km 160668255029-11-2020 20:42 kaart
3 km SSW of Guánica, Puerto Rico 2.8 0071737173 km 160668216829-11-2020 20:36 kaart
19 km SW of San Joaquin, Philippines 4.9 01089910899 km 160668142929-11-2020 20:23 kaart
Mariana Islands region 4.2 01093610936 km 160668045929-11-2020 20:07 kaart
56 km NNE of Yakutat, Alaska 2.1 0071937193 km 160667987029-11-2020 19:57 kaart
97 km NW of Elfin Cove, Alaska 3.1 0072877287 km 160667894729-11-2020 19:42 kaart
46 km ENE of Pedro Bay, Alaska 2.3 0074617461 km 160667852129-11-2020 19:35 kaart
16 km NNW of Stanley, Idaho 2.5 0078737873 km 160667728929-11-2020 19:14 kaart
102 km NNW of San Antonio, Puerto Rico 2.7 0070947094 km 160667669029-11-2020 19:04 kaart
48 km E of Punta Cana, Dominican Republic 3.3 0071967196 km 160667650029-11-2020 19:01 kaart
4 km SSW of Volcano, Hawaii 2.0 01188211882 km 160667414329-11-2020 18:22 kaart
10 km WZW van Petrolia, CA 2.4 0086678667 km 160667247129-11-2020 17:54 kaart
13 km W of Clam Gulch, Alaska 3.1 0074057405 km 160667173129-11-2020 17:42 kaart
northern Alaska 2.5 0068606860 km 160667146129-11-2020 17:37 kaart
Southwest Indian Ridge 5.0 01061610616 km 160666873829-11-2020 16:52 kaart
34 km E of Humahuaca, Argentina 5.7 01070010700 km 160666804429-11-2020 16:40 kaart
2 km SSW of Guánica, Puerto Rico 2.0 0071727172 km 160666636429-11-2020 16:12 kaart
182 km WSW of Adak, Alaska 4.9 0085968596 km 160666545929-11-2020 15:57 kaart
12 km WZW van Petrolia, CA 3.5 0086698669 km 160666481229-11-2020 15:46 kaart
66 km WNW of Ninilchik, Alaska 2.0 0074167416 km 160666404329-11-2020 15:34 kaart
7 km NNW of Stanley, Idaho 2.1 0078797879 km 160666191629-11-2020 14:58 kaart
61 km E of Port Alsworth, Alaska 2.2 0074327432 km 160666181829-11-2020 14:56 kaart
2 km SW of Indios, Puerto Rico 2.2 0071657165 km 160666155229-11-2020 14:52 kaart
110 km SSW of Pagar Alam, Indonesia 4.7 01102711027 km 160666130829-11-2020 14:48 kaart
15 km NW of Pawnee, Oklahoma 2.4 0076187618 km 160666011929-11-2020 14:28 kaart
17 km WNW of Ester, Alaska 2.4 0068576857 km 160665935929-11-2020 14:15 kaart
Rat Islands, Aleutian Islands, Alaska 3.4 0085138513 km 160665905929-11-2020 14:10 kaart
31 km SE of Mina, Nevada 2.0 0085798579 km 160665766529-11-2020 13:47 kaart
67 km ENE of Hualien City, Taiwan 4.9 0096459645 km 160665733429-11-2020 13:42 kaart
69 km SE of Cantwell, Alaska 2.8 0070667066 km 160665718629-11-2020 13:39 kaart
147 km WNW of Haines Junction, Canada 2.1 0071017101 km 160665714129-11-2020 13:39 kaart
Puerto Rico region 2.3 0071737173 km 160665552329-11-2020 13:12 kaart
11 km WNW of Cedar City, Utah 2.0 0083938393 km 160665479829-11-2020 12:59 kaart
0 km SE of Guánica, Puerto Rico 2.5 0071707170 km 160665398929-11-2020 12:46 kaart
19 km SSW of Susitna North, Alaska 2.0 0071907190 km 160665381229-11-2020 12:43 kaart
18 km N van New Idria, CA 2.1 0088598859 km 160664782529-11-2020 11:03 kaart
18 km SW of Coyanosa, Texas 2.4 0084408440 km 160664664929-11-2020 10:44 kaart
17 km E of San Ignacio, Peru 4.7 0099969996 km 160664623029-11-2020 10:37 kaart
32 km SE of Mina, Nevada 2.4 0085798579 km 160664421829-11-2020 10:03 kaart
southern Idaho 2.1 0078837883 km 160664410029-11-2020 10:01 kaart
1 km SSE of Guánica, Puerto Rico 2.2 0071707170 km 160664367129-11-2020 09:54 kaart
22 km WNW of Stanley, Idaho 2.1 0078847884 km 160664278429-11-2020 09:39 kaart
4 km S of Guánica, Puerto Rico 2.3 0071737173 km 160664256429-11-2020 09:36 kaart
20 km WSW of Coyanosa, Texas 3.3 0084418441 km 160664163829-11-2020 09:20 kaart
21 km WNW of Stanley, Idaho 2.5 0078867886 km 160663985729-11-2020 08:50 kaart
66 km E of Port Alsworth, Alaska 2.3 0074287428 km 160663902829-11-2020 08:37 kaart
32 km SE of Mina, Nevada 2.1 0085798579 km 160663783929-11-2020 08:17 kaart
2 km WNW of El Limar, Mexico 4.6 0089618961 km 160663725229-11-2020 08:07 kaart
Hawaii region, Hawaii 2.1 01191211912 km 160663703429-11-2020 08:03 kaart
38 km SSE of Nelchina, Alaska 2.0 0071687168 km 160663660129-11-2020 07:56 kaart
46 km W of Happy Valley, Alaska 2.1 0074417441 km 160663640129-11-2020 07:53 kaart
1 km ESE of Pāhala, Hawaii 2.3 01191011910 km 160663560329-11-2020 07:40 kaart
Southern Alaska 2.4 0072087208 km 160663488629-11-2020 07:28 kaart
1 km SE of Guánica, Puerto Rico 2.4 0071707170 km 160663324629-11-2020 07:00 kaart
92 km WNW of Yakutat, Alaska 3.4 0072487248 km 160663065029-11-2020 06:17 kaart
Mona Passage 3.4 0071057105 km 160662865129-11-2020 05:44 kaart
71 km SSW of Shungnak, Alaska 2.2 0068276827 km 160662811929-11-2020 05:35 kaart
20 km NNW van French Gulch, CA 2.2 0085398539 km 160662763129-11-2020 05:27 kaart
2 km S of Guánica, Puerto Rico 2.0 0071727172 km 160662617629-11-2020 05:02 kaart
5 km E of Pāhala, Hawaii 2.0 01190911909 km 160662577529-11-2020 04:56 kaart
4 km SSE of Pāhala, Hawaii 2.0 01191311913 km 160662536129-11-2020 04:49 kaart
25 km SSW of Gerāsh, Iran 4.9 0049014901 km 160662386829-11-2020 04:24 kaart
27 km E of Skwentna, Alaska 2.1 0072057205 km 160661966529-11-2020 03:14 kaart
48 km NNW of Beluga, Alaska 2.1 0072667266 km 160661641429-11-2020 02:20 kaart
13 km ZW van Searles Valley, CA 2.0 0087948794 km 160661516029-11-2020 01:59 kaart
7 km NW van The Geysers, CA 2.2 0087428742 km 160661372129-11-2020 01:35 kaart
29 km NNE of Old Harbor, Alaska 2.2 0077267726 km 160661364129-11-2020 01:34 kaart
27 km WNW of Valdez, Alaska 2.0 0072157215 km 160661209129-11-2020 01:08 kaart
47 km N of Petersville, Alaska 2.0 0071047104 km 160660967729-11-2020 00:27 kaart
3 km S of Pāhala, Hawaii 2.0 01191311913 km 160660818129-11-2020 00:03 kaart
66 km SE of Pope-Vannoy Landing, Alaska 3.4 0075497549 km 160660747028-11-2020 23:51 kaart
3 km WNW van Delta, B.C., MX 2.0 0089898989 km 160660734328-11-2020 23:49 kaart
89 km WSW of Banda Aceh, Indonesia 4.7 0095519551 km 160660725328-11-2020 23:47 kaart
9 km SSE of Maria Antonia, Puerto Rico 2.3 0071737173 km 160660508228-11-2020 23:11 kaart
27 km SE of Adak, Alaska 3.7 0085368536 km 160660417228-11-2020 22:56 kaart
10 km ENE of Pāhala, Hawaii 2.2 01190311903 km 160660397728-11-2020 22:52 kaart
10 km ENE of Pāhala, Hawaii 2.0 01190311903 km 160660321728-11-2020 22:40 kaart
10 km ENE of Pāhala, Hawaii 3.0 01190211902 km 160660167328-11-2020 22:14 kaart
6 km ENE of Pāhala, Hawaii 2.1 01190611906 km 160660155528-11-2020 22:12 kaart
Gulf of Alaska 2.5 0073897389 km 160660139328-11-2020 22:09 kaart
4 km SE of Otra Banda, Dominican Republic 3.6 0072347234 km 160660065028-11-2020 21:57 kaart
21 km W of Tatitlek, Alaska 2.5 0072597259 km 160660045328-11-2020 21:54 kaart
30 km SSE of Pelabuhanratu, Indonesia 4.6 01148011480 km 160659767228-11-2020 21:07 kaart
4 km OZO van Los Angeles, CA 2.3 0089828982 km 160659750528-11-2020 21:05 kaart
54 km W of Anchor Point, Alaska 2.1 0074727472 km 160659658828-11-2020 20:49 kaart
44 km ESE of Central, Alaska 2.2 0067346734 km 160659604228-11-2020 20:40 kaart
8 km S of Indios, Puerto Rico 2.1 0071687168 km 160659584028-11-2020 20:37 kaart
16 km NNE of Avon, Montana 2.1 0075467546 km 160659505028-11-2020 20:24 kaart
80 km NE of Lime Village, Alaska 2.0 0072627262 km 160659468428-11-2020 20:18 kaart
Mauritius - Reunion region 5.4 0097089708 km 160659452428-11-2020 20:15 kaart
11 km ESE of Waimea, Hawaii 2.0 01182911829 km 160658991128-11-2020 18:58 kaart
19 km SSW of Susitna North, Alaska 2.1 0071897189 km 160658841428-11-2020 18:33 kaart
20 km ENE of Stanley, Idaho 2.7 0078677867 km 160658817428-11-2020 18:29 kaart
47 km WSW of Cantwell, Alaska 2.6 0070617061 km 160658727828-11-2020 18:14 kaart
169 km NNE of Palu, Indonesia 4.6 01171611716 km 160658437028-11-2020 17:26 kaart
101 km SSW of Nikolski, Alaska 4.6 0084768476 km 160658327728-11-2020 17:07 kaart
6 km SSW of Pāhala, Hawaii 2.7 01191611916 km 160658211228-11-2020 16:48 kaart
100 km NW of Yakutat, Alaska 2.0 0072247224 km 160658131728-11-2020 16:35 kaart
1 km SSE of Cidra, Puerto Rico 2.3 0071027102 km 160657732928-11-2020 15:28 kaart
2 km NNE of Big Lake, Alaska 2.0 0072387238 km 160657611428-11-2020 15:08 kaart
36 km NW of Mosquito Lake, Alaska 3.2 0071517151 km 160657472928-11-2020 14:45 kaart
3 km WSW of Guánica, Puerto Rico 2.2 0071737173 km 160657259328-11-2020 14:09 kaart
5 km S of Pāhala, Hawaii 2.3 01191411914 km 160657082128-11-2020 13:40 kaart
50 km WNW of Nanwalek, Alaska 2.1 0074977497 km 160656753728-11-2020 12:45 kaart
35 km NNE of Benton, California 2.0 0086038603 km 160656565228-11-2020 12:14 kaart
34 km NNE of Benton, California 2.1 0086058605 km 160656534428-11-2020 12:09 kaart
8 km WNW of Point Possession, Alaska 2.5 0073167316 km 160656357628-11-2020 11:39 kaart
108 km SSE of Sand Point, Alaska 3.6 0081358135 km 160656348328-11-2020 11:38 kaart
259 km NW of Tual, Indonesia 4.5 01279612796 km 160656250628-11-2020 11:21 kaart
10 km ENE of Pāhala, Hawaii 2.1 01190311903 km 160656158428-11-2020 11:06 kaart
33 km SE of Mina, Nevada 2.5 0085818581 km 160656154728-11-2020 11:05 kaart
66 km SW of Akhiok, Alaska 3.0 0078557855 km 160655904228-11-2020 10:24 kaart
7 km NE of Pāhala, Hawaii 2.3 01190411904 km 160655822628-11-2020 10:10 kaart
7 km ENE of Pāhala, Hawaii 2.4 01190511905 km 160655800028-11-2020 10:06 kaart
161 km ESE of Kimbe, Papua New Guinea 4.6 01410914109 km 160655794928-11-2020 10:05 kaart
7 km ENE of Pāhala, Hawaii 2.3 01190511905 km 160655792528-11-2020 10:05 kaart
8 km NNE of Sunrise, Alaska 2.2 0072917291 km 160655772728-11-2020 10:02 kaart
23 km WNW of Karluk, Alaska 2.9 0077297729 km 160655458128-11-2020 09:09 kaart
9 km NW of Stanley, Idaho 2.1 0078827882 km 160655013128-11-2020 07:55 kaart
15 km NNW of Stanley, Idaho 2.5 0078747874 km 160655003328-11-2020 07:53 kaart
82 km SE of Gizo, Solomon Islands 4.9 01464514645 km 160654667028-11-2020 06:57 kaart
14 km SSE of Guánica, Puerto Rico 2.2 0071777177 km 160654605428-11-2020 06:47 kaart
75 km SSE of Cantwell, Alaska 2.4 0070807080 km 160654421528-11-2020 06:16 kaart
77 km WSW of Nanwalek, Alaska 2.0 0075407540 km 160653960428-11-2020 05:00 kaart
60 km WNW of Rincón, Puerto Rico 3.2 0071857185 km 160653897728-11-2020 04:49 kaart
6 km WSW of Guánica, Puerto Rico 2.4 0071767176 km 160653764028-11-2020 04:27 kaart
South Sandwich Islands region 5.0 01231512315 km 160653630428-11-2020 04:05 kaart
14 km SW of Volcano, Hawaii 2.2 01189111891 km 160653458728-11-2020 03:36 kaart
20 km NW van Ludlow, CA 2.3 0088148814 km 160653331428-11-2020 03:15 kaart
22 km NW van Ludlow, CA 2.6 0088138813 km 160653330728-11-2020 03:15 kaart
116 km SE of Petropavlovsk-Kamchatsky, Russia 4.4 0082458245 km 160653204428-11-2020 02:54 kaart
79 km W van Vandenberg Air Force Base, CA 2.1 0090769076 km 160652849928-11-2020 01:54 kaart
5 km SSE of Pāhala, Hawaii 2.0 01191411914 km 160652793628-11-2020 01:45 kaart
22 km ZW van Lompoc, CA 2.5 0090539053 km 160652596628-11-2020 01:12 kaart
2 km O van Loma Linda, CA 2.9 0089348934 km 160652501628-11-2020 00:56 kaart
6 km NW van The Geysers, CA 2.4 0087428742 km 160652426728-11-2020 00:44 kaart
16 km NNE of Willow, Alaska 2.3 0072017201 km 160652222828-11-2020 00:10 kaart
16 km W of Ashkāsham, Afghanistan 4.0 0053855385 km 160652217028-11-2020 00:09 kaart
western Xizang 4.5 0067616761 km 160652027127-11-2020 23:37 kaart
3 km NE of Pāhala, Hawaii 2.3 01190711907 km 160652009827-11-2020 23:34 kaart
9 km SE of La Parguera, Puerto Rico 2.4 0071807180 km 160651846027-11-2020 23:07 kaart
53 km SSW of Ashkāsham, Afghanistan 3.9 0054175417 km 160651819327-11-2020 23:03 kaart
110 km SE of Petropavlovsk-Kamchatsky, Russia 4.7 0082428242 km 160651783727-11-2020 22:57 kaart
14 km NNW of Stanley, Idaho 3.0 0078777877 km 160651756927-11-2020 22:52 kaart
8 km ENE of Pāhala, Hawaii 2.0 01190411904 km 160651601327-11-2020 22:26 kaart
11 km OZO van Julian, CA 2.8 0089908990 km 160651422327-11-2020 21:57 kaart
18 km ZZO van Ocotillo Wells, CA 2.0 0089708970 km 160651241727-11-2020 21:26 kaart
southern Mid-Atlantic Ridge 5.1 0083958395 km 160651085527-11-2020 21:00 kaart
28 km NW of Stanley, Idaho 2.1 0078787878 km 160650297527-11-2020 18:49 kaart
7 km SW of Guánica, Puerto Rico 2.6 0071777177 km 160650295827-11-2020 18:49 kaart
77 km SSE of Severo-Kuril’sk, Russia 5.3 0084178417 km 160650270927-11-2020 18:45 kaart
southeast Indian Ridge 4.5 01424914249 km 160650239827-11-2020 18:39 kaart
52 km E of Saint Croix, U.S. Virgin Islands 4.0 0070157015 km 160650210927-11-2020 18:35 kaart
6 km OZO van Round Valley, CA 2.3 0086838683 km 160650195827-11-2020 18:32 kaart
33 km NW of Stanley, Idaho 2.3 0078737873 km 160650193727-11-2020 18:32 kaart
30 km NW of Nabesna, Alaska 2.3 0070147014 km 160650189027-11-2020 18:31 kaart
3 km NE of Eastborough, Kansas 2.3 0075287528 km 160650165827-11-2020 18:27 kaart
81 km W van Vandenberg Air Force Base, CA 2.2 0090729072 km 160649975627-11-2020 17:55 kaart
6 km S of Houston, Alaska 3.0 0072337233 km 160649966727-11-2020 17:54 kaart
14 km S of Guánica, Puerto Rico 2.7 0071807180 km 160649888927-11-2020 17:41 kaart
60 km SE of Denali National Park, Alaska 2.0 0070767076 km 160649747227-11-2020 17:17 kaart
56 km ESE of Saint Croix, U.S. Virgin Islands 3.6 0070217021 km 160649611227-11-2020 16:55 kaart
5 km WSW of Fuig, Puerto Rico 2.4 0071737173 km 160649584227-11-2020 16:50 kaart
65 km SSW of Shungnak, Alaska 2.6 0068216821 km 160649551527-11-2020 16:45 kaart
107 km NE of Tobelo, Indonesia 4.6 01205412054 km 160649541227-11-2020 16:43 kaart
66 km SSW of Shungnak, Alaska 2.3 0068226822 km 160649484727-11-2020 16:34 kaart
6 km WSW of Guánica, Puerto Rico 2.0 0071757175 km 160649474327-11-2020 16:32 kaart
14 km SSE of Maria Antonia, Puerto Rico 2.9 0071757175 km 160648937527-11-2020 15:02 kaart
33 km NW of Stanley, Idaho 2.4 0078737873 km 160648850927-11-2020 14:48 kaart
6 km SSE of Maria Antonia, Puerto Rico 2.6 0071707170 km 160648704427-11-2020 14:24 kaart
15 km S of Fern Forest, Hawaii 2.4 01188811888 km 160648429427-11-2020 13:38 kaart
139 km NNW of Ambon, Indonesia 4.8 01245612456 km 160648426527-11-2020 13:37 kaart
13 km S of Guánica, Puerto Rico 2.6 0071807180 km 160648245127-11-2020 13:07 kaart
9 km N of Peralta, Dominican Republic 4.2 0073787378 km 160647958227-11-2020 12:19 kaart
16 km N of Hope, Alaska 2.9 0072857285 km 160647947227-11-2020 12:17 kaart
9 km SE of El Guayabal, Dominican Republic 4.2 0073777377 km 160647931327-11-2020 12:15 kaart
Izu Islands, Japan region 4.0 0098279827 km 160647792127-11-2020 11:52 kaart
36 km NNW of Sinabang, Indonesia 4.5 0098919891 km 160647042827-11-2020 09:47 kaart
4 km SW of Guánica, Puerto Rico 2.0 0071747174 km 160647026627-11-2020 09:44 kaart
12 km S of Guánica, Puerto Rico 2.5 0071797179 km 160646845327-11-2020 09:14 kaart
7 km SSW of Tallaboa, Puerto Rico 2.5 0071627162 km 160646615227-11-2020 08:35 kaart
9 km NNW of Sincik, Turkey 4.6 0030403040 km 160646567627-11-2020 08:27 kaart
33 km NNW of Stanley, Idaho 2.5 0078707870 km 160646432627-11-2020 08:05 kaart
49 km S of Cantwell, Alaska 2.0 0070717071 km 160646339027-11-2020 07:49 kaart
14 km NNW of Stanley, Idaho 2.4 0078757875 km 160646278827-11-2020 07:39 kaart
103 km N of Charlotte Amalie, U.S. Virgin Islands 3.4 0069356935 km 160646198227-11-2020 07:26 kaart
259 km SE of Chiniak, Alaska 3.7 0077857785 km 160646099827-11-2020 07:09 kaart
5 km N of Loíza, Puerto Rico 2.0 0070567056 km 160646087027-11-2020 07:07 kaart
15 km NNW of Stanley, Idaho 2.4 0078757875 km 160646038127-11-2020 06:59 kaart
37 km W of Nanwalek, Alaska 2.2 0075087508 km 160645993127-11-2020 06:52 kaart
15 km NNW of Stanley, Idaho 2.0 0078757875 km 160645980927-11-2020 06:50 kaart
144 km NNW of Caluula, Somalia 4.5 0059055905 km 160645972927-11-2020 06:48 kaart
50 km NW of Beluga, Alaska 2.2 0072787278 km 160645971527-11-2020 06:48 kaart
58 km SW of Kivalina, Alaska 3.3 0067666766 km 160645910627-11-2020 06:38 kaart
29 km NNW of Stanley, Idaho 3.5 0078717871 km 160645774927-11-2020 06:15 kaart
15 km NNW of Stanley, Idaho 2.0 0078757875 km 160645714127-11-2020 06:05 kaart
13 km S of Guánica, Puerto Rico 2.2 0071807180 km 160645666127-11-2020 05:57 kaart
15 km NNW of Stanley, Idaho 2.1 0078757875 km 160645647027-11-2020 05:54 kaart
33 km ENE of Cantwell, Alaska 2.0 0070077007 km 160645393827-11-2020 05:12 kaart
14 km ZZO van Tres Pinos, CA 2.5 0088798879 km 160645317827-11-2020 04:59 kaart
33 km NW of Stanley, Idaho 2.9 0078727872 km 160645183527-11-2020 04:37 kaart
8 km NW van The Geysers, CA 2.3 0087408740 km 160645127727-11-2020 04:27 kaart
11 km ENE of Pāhala, Hawaii 2.3 01190211902 km 160645040927-11-2020 04:13 kaart
10 km ENE of Pāhala, Hawaii 2.1 01190411904 km 160644962627-11-2020 04:00 kaart
126 km NW of Vallenar, Chile 4.2 01149611496 km 160644952127-11-2020 03:58 kaart
11 km ENE of Pāhala, Hawaii 2.1 01190311903 km 160644925227-11-2020 03:54 kaart
10 km ENE of Pāhala, Hawaii 2.2 01190311903 km 160644576327-11-2020 02:56 kaart
5 km NNE of Anacortes, Washington 2.3 0078047804 km 160644559927-11-2020 02:53 kaart
1 km S of Lumbangan, Philippines 4.5 01049610496 km 160644467327-11-2020 02:37 kaart
10 km ENE of Pāhala, Hawaii 2.2 01190411904 km 160644387927-11-2020 02:24 kaart
224 km E of Port Mathurin, Mauritius 4.7 0098569856 km 160644163827-11-2020 01:47 kaart
19 km WNW of Stanley, Idaho 2.5 0078867886 km 160644161127-11-2020 01:46 kaart
4 km ENE of Velinga, Peru 4.0 01048810488 km 160644087627-11-2020 01:34 kaart
1 km ESE of Magas Arriba, Puerto Rico 2.6 0071567156 km 160643862327-11-2020 00:57 kaart
2 km S of Tallaboa, Puerto Rico 2.6 0071577157 km 160643738827-11-2020 00:36 kaart
12 km S of Guánica, Puerto Rico 2.3 0071797179 km 160643512326-11-2020 23:58 kaart
14 km S of Guánica, Puerto Rico 3.1 0071807180 km 160643373326-11-2020 23:35 kaart
3 km SSE of Maria Antonia, Puerto Rico 2.4 0071697169 km 160643325926-11-2020 23:27 kaart
6 km WSW of Guánica, Puerto Rico 2.0 0071757175 km 160643301526-11-2020 23:23 kaart
10 km WNW van Calipatria, CA 2.0 0089338933 km 160643251026-11-2020 23:15 kaart
10 km WNW van Calipatria, CA 2.2 0089338933 km 160643211226-11-2020 23:08 kaart
10 km WNW van Calipatria, CA 3.6 0089338933 km 160643159726-11-2020 22:59 kaart
97 km N of Charlotte Amalie, U.S. Virgin Islands 3.2 0069366936 km 160643001026-11-2020 22:33 kaart
2 km NE of Eastborough, Kansas 2.5 0075297529 km 160642966026-11-2020 22:27 kaart
13 km S of Guánica, Puerto Rico 2.8 0071797179 km 160642861826-11-2020 22:10 kaart
23 km SSE of Al Quţayfah, Syria 4.1 0032713271 km 160642850426-11-2020 22:08 kaart
57 km SSE of Adak, Alaska 4.0 0085708570 km 160642802126-11-2020 22:00 kaart
11 km WNW van Calipatria, CA 2.0 0089338933 km 160642721326-11-2020 21:46 kaart
10 km NW van Calipatria, CA 2.3 0089338933 km 160642714226-11-2020 21:45 kaart
13 km S of Guánica, Puerto Rico 2.5 0071807180 km 160642591926-11-2020 21:25 kaart
14 km S of Fern Forest, Hawaii 3.2 01188711887 km 160642536926-11-2020 21:16 kaart
18 km SSW of Susitna North, Alaska 4.5 0071897189 km 160642513026-11-2020 21:12 kaart
12 km S of Guánica, Puerto Rico 2.8 0071797179 km 160642499326-11-2020 21:09 kaart
19 km S of Volcano, Hawaii 2.4 01189611896 km 160642445326-11-2020 21:00 kaart
15 km S of Guánica, Puerto Rico 3.2 0071817181 km 160642431326-11-2020 20:58 kaart
30 km E of Miyako, Japan 4.5 0090839083 km 160642406726-11-2020 20:54 kaart
14 km Z van Arvin, CA 2.9 0089148914 km 160642398526-11-2020 20:53 kaart
4 km W of Orlando, Oklahoma 2.0 0076717671 km 160642240026-11-2020 20:26 kaart
14 km S of Guánica, Puerto Rico 2.2 0071807180 km 160642239926-11-2020 20:26 kaart
10 km ZW van Niland, CA 2.0 0089338933 km 160642214126-11-2020 20:22 kaart
11 km S of Guánica, Puerto Rico 2.5 0071787178 km 160642194226-11-2020 20:19 kaart
112 km N of Charlotte Amalie, U.S. Virgin Islands 3.2 0069186918 km 160642188026-11-2020 20:18 kaart
18 km S of Volcano, Hawaii 2.2 01189511895 km 160642161826-11-2020 20:13 kaart
14 km S of Guánica, Puerto Rico 3.5 0071817181 km 160642056826-11-2020 19:56 kaart
9 km NNE of Quinlan, Oklahoma 2.2 0077297729 km 160642009326-11-2020 19:48 kaart
5 km S of Pāhala, Hawaii 2.3 01191411914 km 160641490426-11-2020 18:21 kaart
31 km WSW of Ashkāsham, Afghanistan 4.4 0053875387 km 160641165526-11-2020 17:27 kaart
Southwest Indian Ridge 5.2 01089610896 km 160641022626-11-2020 17:03 kaart
7 km ZZO van Littlerock, CA 3.1 0089308930 km 160640955926-11-2020 16:52 kaart
14 km SW of Stanley, Idaho 2.5 0078977897 km 160640870026-11-2020 16:38 kaart
93 km E of Iquique, Chile 4.3 01068210682 km 160640777026-11-2020 16:22 kaart
71 km WNW of Karluk, Alaska 2.0 0077217721 km 160640750926-11-2020 16:18 kaart
Volcano Islands, Japan region 4.8 01085710857 km 160640544226-11-2020 15:44 kaart
44 km WSW of Anchor Point, Alaska 2.1 0074787478 km 160640513426-11-2020 15:38 kaart
3 km SSW of Pāhala, Hawaii 2.1 01191311913 km 160640351626-11-2020 15:11 kaart
64 km W of Nanwalek, Alaska 2.0 0075097509 km 160640226126-11-2020 14:51 kaart
9 km E of Pāhala, Hawaii 2.0 01190611906 km 160640161526-11-2020 14:40 kaart
34 km WSW of Manley Hot Springs, Alaska 2.2 0069016901 km 160640062426-11-2020 14:23 kaart
110 km ESE of Angoram, Papua New Guinea 4.4 01364813648 km 160639503126-11-2020 12:50 kaart
13 km NW van Pinnacles, CA 2.2 0088828882 km 160639334926-11-2020 12:22 kaart
Carlsberg Ridge 4.7 0073897389 km 160639326826-11-2020 12:21 kaart
68 km ESE of Denali National Park, Alaska 2.0 0070667066 km 160639244626-11-2020 12:07 kaart
10 km SSE of Guánica, Puerto Rico 2.7 0071757175 km 160639168426-11-2020 11:54 kaart
45 km WSW of Masachapa, Nicaragua 4.7 0090889088 km 160639150526-11-2020 11:51 kaart
5 km SSE of Maria Antonia, Puerto Rico 2.9 0071717171 km 160638826526-11-2020 10:57 kaart
43 km SSW of Ashkāsham, Afghanistan 4.4 0054075407 km 160638490626-11-2020 10:01 kaart
30 km ZO van Bodie, CA 3.4 0086308630 km 160638423026-11-2020 09:50 kaart
10 km W of Lamont, Oklahoma 2.6 0076397639 km 160638296626-11-2020 09:29 kaart
30 km SSE of Mina, Nevada 2.4 0085868586 km 160638231926-11-2020 09:18 kaart
98 km N of Culebra, Puerto Rico 3.4 0069516951 km 160638143526-11-2020 09:03 kaart
30 km NNW of Pante Makasar, Timor Leste 4.5 01282012820 km 160638127426-11-2020 09:01 kaart
6 km ZZW van Tres Pinos, CA 2.0 0088748874 km 160638032026-11-2020 08:45 kaart
104 km N of Charlotte Amalie, U.S. Virgin Islands 3.6 0069366936 km 160638004326-11-2020 08:40 kaart
Puerto Rico 2.2 0071587158 km 160637832926-11-2020 08:12 kaart
10 km NE of Eagle River, Alaska 2.3 0072467246 km 160637584726-11-2020 07:30 kaart
11 km SSE of Guánica, Puerto Rico 2.2 0071757175 km 160637582226-11-2020 07:30 kaart
30 km S of Akutan, Alaska 3.7 0082618261 km 160637467626-11-2020 07:11 kaart
105 km N of Charlotte Amalie, U.S. Virgin Islands 4.7 0069316931 km 160637446526-11-2020 07:07 kaart
20 km SW of Mammoth, Wyoming 2.2 0076377637 km 160637345426-11-2020 06:50 kaart
4 km ESE of La Parguera, Puerto Rico 2.2 0071787178 km 160637291426-11-2020 06:41 kaart
15 km E of Ferry, Alaska 2.2 0069576957 km 160637233026-11-2020 06:32 kaart
23 km WNW of Mackay, Idaho 2.1 0078537853 km 160637196826-11-2020 06:26 kaart
21 km OZO van Little Lake, CA 2.2 0087838783 km 160636826326-11-2020 05:24 kaart
5 km SSE of Maria Antonia, Puerto Rico 2.4 0071717171 km 160636694526-11-2020 05:02 kaart
101 km SE of Angoram, Papua New Guinea 5.1 01364513645 km 160636575526-11-2020 04:42 kaart
1 km NW of Yauco, Puerto Rico 2.0 0071607160 km 160636405426-11-2020 04:14 kaart
45 km NW of Toyah, Texas 2.5 0084608460 km 160636325126-11-2020 04:00 kaart
111 km SE of Angoram, Papua New Guinea 5.4 01365113651 km 160636246526-11-2020 03:47 kaart
55 km WNW of Salamatof, Alaska 2.3 0073627362 km 160636132726-11-2020 03:28 kaart
12 km WNW of Pāhala, Hawaii 2.7 01190911909 km 160635989226-11-2020 03:04 kaart
3 km SSE of Pāhala, Hawaii 2.0 01191211912 km 160635974526-11-2020 03:02 kaart
20 km SW of Illapel, Chile 4.2 01182911829 km 160635907226-11-2020 02:51 kaart
62 km N of Kimbe, Papua New Guinea 4.4 01394613946 km 160635544826-11-2020 01:50 kaart
62 km N of San Antonio, Puerto Rico 2.5 0070987098 km 160635478626-11-2020 01:39 kaart
170 km WSW of Brookings, Oregon 3.0 0086168616 km 160635476826-11-2020 01:39 kaart
3 km E of Maria Antonia, Puerto Rico 2.2 0071657165 km 160635434126-11-2020 01:32 kaart
western Xizang 4.2 0067576757 km 160635333226-11-2020 01:15 kaart
2 km SSE of Maria Antonia, Puerto Rico 2.4 0071697169 km 160635317326-11-2020 01:12 kaart
11 km E of Pāhala, Hawaii 2.0 01190511905 km 160635210726-11-2020 00:55 kaart
44 km E of Yakutat, Alaska 2.3 0072277227 km 160635163026-11-2020 00:47 kaart
8 km ENE of Pāhala, Hawaii 2.1 01190611906 km 160634750825-11-2020 23:38 kaart
South Shetland Islands 4.1 01379013790 km 160634650125-11-2020 23:21 kaart
48 km WNW of Happy Valley, Alaska 2.0 0074367436 km 160634633125-11-2020 23:18 kaart
9 km SSE of Volcano, Hawaii 2.1 01188511885 km 160634632725-11-2020 23:18 kaart
southern Greece 4.0 0022082208 km 160634429725-11-2020 22:44 kaart
southeast of Easter Island 5.7 01376013760 km 160634386225-11-2020 22:37 kaart
5 km S of Guánica, Puerto Rico 2.9 0071747174 km 160634337425-11-2020 22:29 kaart
111 km NW of Yakutat, Alaska 2.5 0072227222 km 160634265325-11-2020 22:17 kaart
14 km NNW of Stanley, Idaho 2.2 0078767876 km 160634194125-11-2020 22:05 kaart
33 km SE of Mina, Nevada 2.0 0085788578 km 160633960525-11-2020 21:26 kaart
33 km SE of Mina, Nevada 2.6 0085788578 km 160633955625-11-2020 21:25 kaart
9 km S of Funny River, Alaska 2.0 0073707370 km 160633872325-11-2020 21:12 kaart
155 km NNE of Calama, Chile 4.3 01072610726 km 160633756325-11-2020 20:52 kaart
21 km ENE of Honaunau-Napoopoo, Hawaii 2.2 01188011880 km 160633703525-11-2020 20:43 kaart
89 km S of Serdar, Turkmenistan 4.8 0042334233 km 160633510025-11-2020 20:11 kaart
82 km N of Cruz Bay, U.S. Virgin Islands 3.6 0069256925 km 160633442825-11-2020 20:00 kaart
175 km SW of Nikolski, Alaska 4.4 0084918491 km 160633369725-11-2020 19:48 kaart
83 km NW of San Antonio, Puerto Rico 3.1 0071257125 km 160633327625-11-2020 19:41 kaart
7 km NO van Aguanga, CA 2.8 0089658965 km 160633111125-11-2020 19:05 kaart
11 km NNW of Midland, Texas 2.5 0082938293 km 160633073325-11-2020 18:58 kaart
30 km E of Miches, Dominican Republic 3.8 0072147214 km 160632899625-11-2020 18:29 kaart
8 km ENE of Pāhala, Hawaii 2.1 01190611906 km 160632876225-11-2020 18:26 kaart
21 km ENE of Honaunau-Napoopoo, Hawaii 2.1 01188111881 km 160632873525-11-2020 18:25 kaart
10 km NO van Coso Junction, CA 2.1 0087718771 km 160632834725-11-2020 18:19 kaart
11 km SSW of Leilani Estates, Hawaii 2.1 01187811878 km 160632616925-11-2020 17:42 kaart
16 km S of Volcano, Hawaii 2.3 01189411894 km 160632593825-11-2020 17:38 kaart
12 km SW of Glacier View, Alaska 2.1 0071837183 km 160632362125-11-2020 17:00 kaart
203 km SSE of Katsuura, Japan 4.3 0096639663 km 160632344425-11-2020 16:57 kaart
49 km S of George Town, Cayman Islands 4.4 0080968096 km 160632300125-11-2020 16:50 kaart
50 km NNW of Petersville, Alaska 2.2 0071057105 km 160631963625-11-2020 15:53 kaart
69 km WNW of Tobelo, Indonesia 5.0 01203312033 km 160631763425-11-2020 15:20 kaart
western Texas 3.0 0084428442 km 160631462925-11-2020 14:30 kaart
15 km NNW of Stanley, Idaho 3.1 0078777877 km 160631274225-11-2020 13:59 kaart
112 km SSW of Kaktovik, Alaska 2.6 0063566356 km 160631185925-11-2020 13:44 kaart
13 km NNW of Stanley, Idaho 3.7 0078777877 km 160631182625-11-2020 13:43 kaart
9 km E of Hebgen Lake Estates, Montana 3.1 0076517651 km 160630910125-11-2020 12:58 kaart
15 km NNW of Stanley, Idaho 2.9 0078767876 km 160630705025-11-2020 12:24 kaart
5 km WSW of Guánica, Puerto Rico 2.1 0071747174 km 160630629925-11-2020 12:11 kaart
90 km NE of Punta Cana, Dominican Republic 3.5 0071337133 km 160630446325-11-2020 11:41 kaart
9 km NNE of Quinlan, Oklahoma 2.0 0077297729 km 160630416425-11-2020 11:36 kaart
40 km SE of Halibut Cove, Alaska 2.7 0074917491 km 160630246625-11-2020 11:07 kaart
4 km WNW of San Javier, Chile 4.6 01218312183 km 160630190425-11-2020 10:58 kaart
5 km SSW of Volcano, Hawaii 2.2 01188311883 km 160630135025-11-2020 10:49 kaart
6 km S of Volcano, Hawaii 2.2 01188411884 km 160630134925-11-2020 10:49 kaart
4 km SE of Maria Antonia, Puerto Rico 2.3 0071687168 km 160630100425-11-2020 10:43 kaart
5 km SSW of Indios, Puerto Rico 3.2 0071677167 km 160630015925-11-2020 10:29 kaart
6 km SW of Volcano, Hawaii 2.0 01188311883 km 160629986625-11-2020 10:24 kaart
9 km E of Bancroft, Idaho 2.5 0078707870 km 160629935325-11-2020 10:15 kaart
41 km N of Petersville, Alaska 2.5 0071127112 km 160629912525-11-2020 10:12 kaart
150 km SW of Padangsidempuan, Indonesia 4.4 01023410234 km 160629905925-11-2020 10:10 kaart
1 km SSW of Guánica, Puerto Rico 2.3 0071717171 km 160629879925-11-2020 10:06 kaart
4 km SSW of Indios, Puerto Rico 2.7 0071667166 km 160629828325-11-2020 09:58 kaart
11 km S of Ames, Oklahoma 2.3 0077157715 km 160629822025-11-2020 09:57 kaart
34 km SE of Mina, Nevada 2.2 0085768576 km 160629815125-11-2020 09:55 kaart
4 km SSE of Pāhala, Hawaii 2.1 01191311913 km 160629775825-11-2020 09:49 kaart
8 km SSE of Volcano, Hawaii 2.6 01188511885 km 160629653725-11-2020 09:28 kaart
8 km NW of Broken Bow, Oklahoma 2.2 0076877687 km 160629600025-11-2020 09:20 kaart
9 km NNE of Quinlan, Oklahoma 2.4 0077307730 km 160629411425-11-2020 08:48 kaart
9 km NNE of Quinlan, Oklahoma 2.5 0077307730 km 160629406025-11-2020 08:47 kaart
9 km NNE of Quinlan, Oklahoma 2.7 0077307730 km 160629405525-11-2020 08:47 kaart
9 km NNE of Quinlan, Oklahoma 2.5 0077307730 km 160629405025-11-2020 08:47 kaart
12 km NNW of Midland, Texas 3.3 0082938293 km 160629384125-11-2020 08:44 kaart
9 km SSE of Volcano, Hawaii 2.0 01188411884 km 160629339325-11-2020 08:36 kaart
25 km WNW of Petersville, Alaska 2.4 0071477147 km 160629131325-11-2020 08:01 kaart
8 km ENE of Pāhala, Hawaii 2.0 01190411904 km 160628941325-11-2020 07:30 kaart
8 km ENE of Pāhala, Hawaii 2.0 01190411904 km 160628903125-11-2020 07:23 kaart
7 km ENE of Pāhala, Hawaii 2.6 01190511905 km 160628852725-11-2020 07:15 kaart
8 km ENE of Pāhala, Hawaii 2.6 01190411904 km 160628852125-11-2020 07:15 kaart
56 km ESE of Sand Point, Alaska 4.1 0080628062 km 160628759825-11-2020 06:59 kaart
163 km S of Sofifi, Indonesia 4.4 01229612296 km 160628755325-11-2020 06:59 kaart
2 km NW of Tallaboa, Puerto Rico 2.1 0071547154 km 160628575025-11-2020 06:29 kaart
48 km W of Nikolski, Alaska 2.4 0083878387 km 160628479825-11-2020 06:13 kaart
7 km ESE of La Parguera, Puerto Rico 2.2 0071767176 km 160628260425-11-2020 05:36 kaart
67 km NNE of Petersville, Alaska 2.2 0070827082 km 160628132725-11-2020 05:15 kaart
Puerto Rico region 2.2 0071647164 km 160628117525-11-2020 05:12 kaart
36 km S of Cantwell, Alaska 3.3 0070627062 km 160627967625-11-2020 04:47 kaart
35 km SE of Mina, Nevada 2.4 0085768576 km 160627797025-11-2020 04:19 kaart
34 km E of Calingasta, Argentina 4.6 01165611656 km 160627709825-11-2020 04:04 kaart
5 km ESE of Pole Ojea, Puerto Rico 2.1 0071877187 km 160627691825-11-2020 04:01 kaart
26 km NW of Stanley, Idaho 2.4 0078827882 km 160627562525-11-2020 03:40 kaart
47 km ENE of Hinatuan, Philippines 4.6 01137111371 km 160627112525-11-2020 02:25 kaart
3 km SSW of Mitsukaidō, Japan 4.3 0093639363 km 160627081825-11-2020 02:20 kaart
9 km E of Hebgen Lake Estates, Montana 2.1 0076527652 km 160627047925-11-2020 02:14 kaart
2 km S of Guánica, Puerto Rico 2.1 0071727172 km 160626955825-11-2020 01:59 kaart
7 km SE of Howell, Utah 2.5 0079857985 km 160626796125-11-2020 01:32 kaart
3 km NNE of Tiquipaya, Bolivia 3.1 01023710237 km 160626718025-11-2020 01:19 kaart
5 km NE of Ames, Oklahoma 2.2 0077017701 km 160626586925-11-2020 00:57 kaart
8 km ENE of Pāhala, Hawaii 2.2 01190511905 km 160626458025-11-2020 00:36 kaart
89 km SSE of Halibut Cove, Alaska 2.6 0075337533 km 160626432125-11-2020 00:32 kaart
13 km ENE of Chenega, Alaska 2.1 0073537353 km 160626335425-11-2020 00:15 kaart
4 km WNW van Fillmore, CA 2.0 0089838983 km 160626274225-11-2020 00:05 kaart
4 km E of Three Rivers, Oregon 2.3 0082048204 km 160626263825-11-2020 00:03 kaart
5 km SSW of Volcano, Hawaii 2.0 01188311883 km 160626240025-11-2020 00:00 kaart
37 km WSW of Clear, Alaska, Alaska 2.0 0069596959 km 160626235824-11-2020 23:59 kaart
3 km S of Guánica, Puerto Rico 2.4 0071727172 km 160626215224-11-2020 23:55 kaart
1 km S of Guánica, Puerto Rico 2.3 0071717171 km 160626159324-11-2020 23:46 kaart
17 km W van Petrolia, CA 2.1 0086698669 km 160626151824-11-2020 23:45 kaart
4 km S of Guánica, Puerto Rico 2.7 0071737173 km 160626120124-11-2020 23:40 kaart
2 km S of Guánica, Puerto Rico 3.1 0071727172 km 160626033324-11-2020 23:25 kaart
21 km WSW of Westport, Oregon 2.0 0080838083 km 160625789224-11-2020 22:44 kaart
5 km SSW of Indios, Puerto Rico 2.4 0071667166 km 160625781524-11-2020 22:43 kaart
15 km Z van Arvin, CA 2.3 0089148914 km 160625755024-11-2020 22:39 kaart
6 km SW of Guánica, Puerto Rico 2.3 0071767176 km 160625714224-11-2020 22:32 kaart
153 km NNW of Rosetta, Egypt 4.1 0029322932 km 160625629624-11-2020 22:18 kaart
Izu Islands, Japan region 4.5 0098539853 km 160625625824-11-2020 22:17 kaart
64 km N of Petersville, Alaska 2.4 0070917091 km 160625541924-11-2020 22:03 kaart
Mid-Indian Ridge 5.5 0090139013 km 160625537824-11-2020 22:02 kaart
46 km WNW of Aleneva, Alaska 2.2 0076427642 km 160625424524-11-2020 21:44 kaart
1 km SSW of Guánica, Puerto Rico 2.0 0071717171 km 160625307924-11-2020 21:24 kaart
83 km S of Néa Anatolí, Greece 4.3 0025612561 km 160625307924-11-2020 21:24 kaart
5 km ENE of Weston, Oregon 2.0 0078857885 km 160625266824-11-2020 21:17 kaart
20 km WNW of Stanley, Idaho 2.4 0078887888 km 160625264624-11-2020 21:17 kaart
34 km E of McKinley Park, Alaska 2.2 0069846984 km 160625164324-11-2020 21:00 kaart
11 km SSE of Guánica, Puerto Rico 2.7 0071757175 km 160625133824-11-2020 20:55 kaart
6 km SSW of Guánica, Puerto Rico 2.0 0071767176 km 160624660924-11-2020 19:36 kaart
5 km NE of Ames, Oklahoma 2.3 0077017701 km 160624566624-11-2020 19:21 kaart
29 km S of Knik River, Alaska 2.5 0072587258 km 160624468424-11-2020 19:04 kaart
66 km SSW of Chirilagua, El Salvador 4.9 0090969096 km 160624321424-11-2020 18:40 kaart
9 km NNW of Meadow Lakes, Alaska 2.0 0072177217 km 160624273324-11-2020 18:32 kaart
2 km E of Big Lake, Alaska 2.1 0072407240 km 160624255124-11-2020 18:29 kaart
118 km NNW of Bima, Indonesia 4.4 01229512295 km 160624242124-11-2020 18:27 kaart
2 km SE of Palomas, Puerto Rico 2.3 0071647164 km 160624075724-11-2020 17:59 kaart
6 km S of Big Lake, Alaska 2.2 0072477247 km 160623913624-11-2020 17:32 kaart
5 km NE of Ames, Oklahoma 2.1 0077017701 km 160623861724-11-2020 17:23 kaart
19 km NNE of Chacra, Colorado 2.4 0079137913 km 160623849824-11-2020 17:21 kaart
Volcano Islands, Japan region 5.0 01052710527 km 160623671724-11-2020 16:51 kaart
6 km W of Seward, Alaska 2.6 0073837383 km 160623617424-11-2020 16:42 kaart
29 km ESE of Pedro Bay, Alaska 2.8 0074877487 km 160623528624-11-2020 16:28 kaart
7 km SW of Guánica, Puerto Rico 2.2 0071777177 km 160623479024-11-2020 16:19 kaart
4 km S of Avard, Oklahoma 2.4 0077077707 km 160623298924-11-2020 15:49 kaart
36 km W of Anchor Point, Alaska 2.1 0074707470 km 160623227324-11-2020 15:37 kaart
36 km ESE of Mina, Nevada 2.3 0085688568 km 160622833324-11-2020 14:32 kaart
15 km WSW of Salamatof, Alaska 2.0 0073677367 km 160622817824-11-2020 14:29 kaart
41 km ENE of Hinatuan, Philippines 4.6 01136211362 km 160622744724-11-2020 14:17 kaart
Guam region 4.4 01182011820 km 160622654924-11-2020 14:02 kaart
2 km SSE of Houston, Alaska 2.6 0072287228 km 160622629224-11-2020 13:58 kaart
2 km ESE of Pāhala, Hawaii 2.0 01191011910 km 160622542824-11-2020 13:43 kaart
7 km S of Happy Valley, Alaska 2.2 0074437443 km 160622480924-11-2020 13:33 kaart
Banda Sea 4.4 01299512995 km 160622475224-11-2020 13:32 kaart
8 km E of Bancroft, Idaho 2.4 0078697869 km 160622145124-11-2020 12:37 kaart
southern Idaho 2.2 0078717871 km 160622007924-11-2020 12:14 kaart
14 km NNE of Fortine, Montana 2.6 0074557455 km 160621988624-11-2020 12:11 kaart

575 earthquakes found. Click on location or map links for more details from the USGS


Kaart en gegevens eigendom van United States Geological Survey

Script ontwikkeld door  Saratoga-weather.org Aangepast voor de template door  Weerstation Leuven (version 3.21)

Apparatuur in gebruik:

Weerstation
Davis VP2

Weerprogramma
Meteobridge

Weercomputer
Shuttle

Webleverancier
WeservIT

Davis VP2

Meteobridge

Shuttle

WeservIT